Time;durP1;ratioP1;P1;durP2;ratioP2;P2;SDS_P1;SDS_P2;PMS_P1;PMS_P2;Temp;Humidity;BMP_temperature;BMP_pressure;BME280_temperature;BME280_humidity;BME280_pressure;Samples;Min_cycle;Max_cycle;Signal;HPM_P1;HPM_P2
2022/08/16 00:01:20;;;;;;;4.60;2.03;;;;;;;19.42;95.43;99443.63;4935744;29;20445;-48
2022/08/16 00:03:50;;;;;;;1.20;1.10;;;;;;;19.53;95.35;99446.31;4935881;29;20471;-48
2022/08/16 00:06:17;;;;;;;1.87;1.77;;;;;;;19.42;96.25;99440.91;4935535;29;20464;-48
2022/08/16 00:08:44;;;;;;;2.37;2.00;;;;;;;19.41;96.28;99437.38;4935585;29;20550;-48
2022/08/16 00:11:12;;;;;;;1.20;1.10;;;;;;;19.45;96.29;99446.06;4935582;29;20487;-48
2022/08/16 00:13:43;;;;;;;2.20;1.30;;;;;;;19.32;96.56;99437.22;4935745;29;20455;-48
2022/08/16 00:16:24;;;;;;;1.83;1.73;;;;;;;19.11;97.09;99435.22;4934544;28;20947;-48
2022/08/16 00:19:13;;;;;;;1.50;1.40;;;;;;;19.19;96.89;99443.59;4962965;28;20471;-48
2022/08/16 00:21:41;;;;;;;7.03;1.47;;;;;;;18.94;97.74;99441.94;4976186;28;20465;-49
2022/08/16 00:24:08;;;;;;;1.07;0.97;;;;;;;18.90;98.09;99450.34;4970477;28;20547;-50
2022/08/16 00:26:41;;;;;;;2.57;2.37;;;;;;;18.94;97.96;99443.78;4969162;28;20485;-48
2022/08/16 00:29:13;;;;;;;5.53;1.70;;;;;;;18.91;97.81;99447.56;4963938;28;20470;-48
2022/08/16 00:31:43;;;;;;;2.17;1.00;;;;;;;18.92;98.25;99445.72;4962945;28;20491;-48
2022/08/16 00:34:27;;;;;;;1.87;1.77;;;;;;;18.70;99.58;99445.63;4975589;28;21026;-48
2022/08/16 00:37:15;;;;;;;2.30;2.20;;;;;;;18.85;99.55;99434.53;4977685;28;20447;-49
2022/08/16 00:39:44;;;;;;;1.67;1.57;;;;;;;19.03;99.07;99443.03;4975745;28;20476;-49
2022/08/16 00:42:13;;;;;;;3.57;2.63;;;;;;;18.97;99.22;99443.53;4963620;28;20477;-48
2022/08/16 00:45:15;;;;;;;1.90;1.80;;;;;;;18.98;99.27;99439.00;4975585;28;20463;-49
2022/08/16 00:47:45;;;;;;;1.70;1.60;;;;;;;18.86;99.62;99448.88;4963766;28;20490;-48
2022/08/16 00:50:19;;;;;;;2.93;2.63;;;;;;;18.82;99.37;99450.94;4975549;28;20451;-48
2022/08/16 00:52:45;;;;;;;2.67;2.53;;;;;;;18.85;99.60;99441.75;4975606;28;20494;-49
2022/08/16 00:55:19;;;;;;;1.73;1.63;;;;;;;18.68;100.00;99456.50;4964767;28;20443;-49
2022/08/16 00:57:48;;;;;;;1.23;1.13;;;;;;;18.53;100.00;99453.13;4973918;28;20475;-49
2022/08/16 01:00:28;;;;;;;2.00;1.53;;;;;;;18.74;100.00;99457.88;4976746;28;20480;-49
2022/08/16 01:02:58;;;;;;;1.87;1.77;;;;;;;18.82;100.00;99448.25;4977701;28;20454;-48
2022/08/16 01:05:25;;;;;;;1.53;1.43;;;;;;;18.88;100.00;99444.22;4964309;28;20514;-49
2022/08/16 01:07:52;;;;;;;2.17;2.07;;;;;;;18.89;100.00;99437.84;4984768;28;20486;-49
2022/08/16 01:10:21;;;;;;;3.67;2.07;;;;;;;18.92;100.00;99454.66;4963950;28;20459;-49
2022/08/16 01:13:11;;;;;;;1.60;1.50;;;;;;;18.94;100.00;99444.63;4963669;28;20522;-49
2022/08/16 01:15:56;;;;;;;1.77;1.60;;;;;;;18.86;100.00;99444.34;4975227;28;20450;-48
2022/08/16 01:18:28;;;;;;;3.40;2.47;;;;;;;18.73;100.00;99450.78;4964010;28;20498;-49
2022/08/16 01:21:15;;;;;;;2.23;2.13;;;;;;;18.83;100.00;99452.66;4962590;28;20457;-48
2022/08/16 01:24:09;;;;;;;2.40;2.23;;;;;;;18.98;100.00;99456.00;4962155;28;20602;-48
2022/08/16 01:27:06;;;;;;;2.43;2.33;;;;;;;18.84;99.97;99449.00;4974966;28;20455;-49
2022/08/16 01:29:42;;;;;;;1.43;1.33;;;;;;;18.69;100.00;99449.28;4964452;28;20490;-49
2022/08/16 01:32:25;;;;;;;1.70;1.50;;;;;;;18.61;100.00;99452.50;4962174;28;20498;-49
2022/08/16 01:35:00;;;;;;;3.70;2.63;;;;;;;18.36;100.00;99450.78;4974797;28;20472;-49
2022/08/16 01:37:28;;;;;;;4.97;2.00;;;;;;;18.28;100.00;99439.75;4966503;28;20478;-49
2022/08/16 01:40:03;;;;;;;2.33;2.13;;;;;;;18.33;100.00;99451.03;4970979;28;20481;-49
2022/08/16 01:42:33;;;;;;;8.63;1.70;;;;;;;18.29;100.00;99454.94;4973328;28;21035;-49
2022/08/16 01:44:59;;;;;;;2.40;2.30;;;;;;;18.34;100.00;99455.44;4971346;28;20514;-49
2022/08/16 01:47:27;;;;;;;1.43;1.33;;;;;;;18.26;100.00;99464.09;4964084;28;20471;-49
2022/08/16 01:49:54;;;;;;;2.27;2.07;;;;;;;18.17;100.00;99454.00;4974236;28;20517;-48
2022/08/16 01:52:42;;;;;;;2.87;1.50;;;;;;;18.09;100.00;99455.50;4961875;28;20487;-49
2022/08/16 01:55:12;;;;;;;2.03;1.93;;;;;;;18.18;100.00;99455.72;4961856;28;20871;-49
2022/08/16 01:57:39;;;;;;;11.43;2.20;;;;;;;18.19;100.00;99456.56;4973650;28;20506;-48
2022/08/16 02:00:19;;;;;;;1.93;1.83;;;;;;;18.05;100.00;99452.19;4973386;28;20446;-49
2022/08/16 02:02:55;;;;;;;3.00;2.80;;;;;;;18.06;100.00;99452.06;4972794;28;20483;-48
2022/08/16 02:05:21;;;;;;;2.50;2.40;;;;;;;18.05;100.00;99449.50;4965529;28;20450;-49
2022/08/16 02:07:49;;;;;;;1.97;1.87;;;;;;;18.07;100.00;99452.94;4985856;28;20514;-48
2022/08/16 02:10:19;;;;;;;2.70;2.50;;;;;;;17.96;100.00;99452.88;4963347;28;20458;-48
2022/08/16 02:12:46;;;;;;;2.37;2.27;;;;;;;17.86;100.00;99460.75;4971675;28;20525;-48
2022/08/16 02:15:27;;;;;;;2.63;2.20;;;;;;;17.88;100.00;99453.44;4974208;28;20454;-51
2022/08/16 02:17:55;;;;;;;1.60;1.50;;;;;;;17.97;100.00;99457.28;4961096;28;20482;-49
2022/08/16 02:20:24;;;;;;;1.40;1.30;;;;;;;18.08;100.00;99453.78;4960785;28;20455;-49
2022/08/16 02:22:54;;;;;;;2.90;2.70;;;;;;;18.06;100.00;99457.47;4973904;28;20533;-49
2022/08/16 02:25:22;;;;;;;2.33;2.13;;;;;;;17.95;100.00;99457.38;4972654;28;20454;-49
2022/08/16 02:27:49;;;;;;;3.37;3.17;;;;;;;18.02;100.00;99447.91;4970856;28;20477;-48
2022/08/16 02:30:22;;;;;;;1.80;1.70;;;;;;;17.90;100.00;99448.78;4961015;28;20533;-49
2022/08/16 02:33:09;;;;;;;2.30;2.20;;;;;;;18.02;100.00;99455.13;4973660;28;20490;-48
2022/08/16 02:35:37;;;;;;;2.50;2.40;;;;;;;17.97;100.00;99451.91;4968621;28;20511;-50
2022/08/16 02:38:21;;;;;;;2.33;1.90;;;;;;;17.97;100.00;99451.91;4968143;28;20493;-50
2022/08/16 02:40:49;;;;;;;1.60;1.50;;;;;;;18.02;100.00;99447.91;4973562;28;20941;-49
2022/08/16 02:43:15;;;;;;;2.37;2.17;;;;;;;17.92;100.00;99441.47;4960740;28;20459;-48
2022/08/16 02:45:42;;;;;;;2.00;1.90;;;;;;;17.88;100.00;99444.50;4973702;28;20537;-49
2022/08/16 02:48:09;;;;;;;2.63;2.43;;;;;;;17.89;100.00;99443.53;4971702;28;20470;-49
2022/08/16 02:50:59;;;;;;;3.70;2.33;;;;;;;17.73;100.00;99450.00;4965307;28;20454;-49
2022/08/16 02:53:39;;;;;;;2.00;1.90;;;;;;;17.61;100.00;99445.47;4960861;28;20935;-49
2022/08/16 02:56:10;;;;;;;3.80;3.20;;;;;;;17.64;100.00;99449.75;4962581;28;20451;-48
2022/08/16 02:58:40;;;;;;;3.00;2.77;;;;;;;17.63;100.00;99442.66;4967201;28;20872;-48
2022/08/16 03:01:10;;;;;;;2.27;2.17;;;;;;;17.56;100.00;99444.09;4987151;28;20446;-49
2022/08/16 03:03:59;;;;;;;7.70;3.00;;;;;;;17.65;100.00;99448.78;4966777;28;20451;-49
2022/08/16 03:06:46;;;;;;;14.80;4.20;;;;;;;17.50;100.00;99452.56;4976781;28;20449;-48
2022/08/16 03:09:13;;;;;;;7.90;2.03;;;;;;;17.43;100.00;99442.28;4979135;28;20474;-49
2022/08/16 03:11:42;;;;;;;3.10;2.90;;;;;;;17.41;100.00;99454.97;4967263;28;20541;-49
2022/08/16 03:14:08;;;;;;;2.67;2.47;;;;;;;17.41;100.00;99446.91;4977299;28;20461;-49
2022/08/16 03:16:37;;;;;;;3.60;3.30;;;;;;;17.41;100.00;99449.59;4968119;28;20485;-51
2022/08/16 03:19:24;;;;;;;4.43;4.13;;;;;;;17.34;100.00;99452.78;4976128;28;20832;-49
2022/08/16 03:21:50;;;;;;;2.73;2.53;;;;;;;17.41;100.00;99452.28;4977305;28;20461;-48
2022/08/16 03:24:17;;;;;;;3.87;3.60;;;;;;;17.58;100.00;99456.44;4964172;28;20450;-48
2022/08/16 03:26:57;;;;;;;3.03;2.87;;;;;;;17.48;100.00;99455.38;4976958;28;20457;-48
2022/08/16 03:29:26;;;;;;;4.20;3.10;;;;;;;17.39;100.00;99458.69;4969903;28;20451;-48
2022/08/16 03:31:57;;;;;;;3.07;2.87;;;;;;;17.47;100.00;99456.34;4971868;28;20526;-49
2022/08/16 03:34:25;;;;;;;2.83;2.73;;;;;;;17.46;100.00;99451.94;4976910;28;20824;-48
2022/08/16 03:36:52;;;;;;;2.00;1.90;;;;;;;17.61;100.00;99455.38;4963705;28;20465;-49
2022/08/16 03:39:19;;;;;;;4.67;4.37;;;;;;;17.50;100.00;99460.63;4976860;28;20847;-49
2022/08/16 03:41:46;;;;;;;2.60;2.50;;;;;;;17.45;100.00;99460.97;4974293;28;20454;-49
2022/08/16 03:44:17;;;;;;;2.20;2.10;;;;;;;17.40;100.00;99463.09;4966906;28;20478;-49
2022/08/16 03:47:04;;;;;;;3.20;2.63;;;;;;;17.41;100.00;99462.16;4976479;28;20457;-49
2022/08/16 03:49:36;;;;;;;13.07;3.03;;;;;;;17.39;100.00;99462.25;4963606;28;20454;-52
2022/08/16 03:52:04;;;;;;;3.60;3.40;;;;;;;17.24;100.00;99460.63;4976549;28;20500;-49
2022/08/16 03:54:30;;;;;;;2.47;2.37;;;;;;;17.10;100.00;99463.41;4976378;28;20461;-50
2022/08/16 03:57:01;;;;;;;2.60;2.50;;;;;;;17.03;100.00;99467.50;4976349;28;20954;-49
2022/08/16 03:59:30;;;;;;;10.30;2.00;;;;;;;17.12;100.00;99469.53;4967277;28;20457;-48
2022/08/16 04:02:00;;;;;;;2.27;2.17;;;;;;;17.06;100.00;99462.75;4986832;28;20461;-49
2022/08/16 04:04:34;;;;;;;3.27;3.07;;;;;;;16.95;100.00;99473.38;4963173;28;20943;-49
2022/08/16 04:07:03;;;;;;;2.70;1.73;;;;;;;16.93;100.00;99469.06;4985695;28;20516;-49
2022/08/16 04:09:33;;;;;;;3.03;2.83;;;;;;;16.86;100.00;99471.31;4971855;28;20513;-49
2022/08/16 04:12:04;;;;;;;2.83;2.73;;;;;;;16.81;100.00;99476.13;4969064;28;20462;-49
2022/08/16 04:14:37;;;;;;;3.17;2.97;;;;;;;16.82;100.00;99467.09;4976350;28;20508;-50
2022/08/16 04:17:14;;;;;;;9.57;3.40;;;;;;;16.61;100.00;99472.06;4974229;28;20584;-49
2022/08/16 04:19:43;;;;;;;2.60;2.40;;;;;;;16.63;100.00;99467.47;4966175;28;20525;-48
2022/08/16 04:22:11;;;;;;;3.63;3.33;;;;;;;16.76;100.00;99468.38;4975996;28;20458;-48
2022/08/16 04:24:38;;;;;;;3.23;2.93;;;;;;;16.79;100.00;99472.69;4966828;28;20451;-49
2022/08/16 04:27:06;;;;;;;2.73;2.53;;;;;;;16.81;100.00;99473.44;4972700;28;20454;-48
2022/08/16 04:29:34;;;;;;;3.13;2.83;;;;;;;16.77;100.00;99477.31;4966237;28;20829;-48
2022/08/16 04:32:11;;;;;;;4.60;2.97;;;;;;;16.78;100.00;99477.19;4965694;28;20522;-48
2022/08/16 04:34:39;;;;;;;2.73;2.63;;;;;;;16.79;100.00;99480.75;4965078;28;20438;-49
2022/08/16 04:37:06;;;;;;;9.13;3.57;;;;;;;16.83;100.00;99476.88;4967200;28;20446;-49
2022/08/16 04:39:34;;;;;;;3.63;3.13;;;;;;;16.91;100.00;99479.06;4966989;28;20812;-48
2022/08/16 04:42:13;;;;;;;4.43;3.80;;;;;;;16.70;100.00;99474.16;4965938;28;20446;-51
2022/08/16 04:44:39;;;;;;;5.57;3.17;;;;;;;16.81;100.00;99479.66;4968234;28;20456;-48
2022/08/16 04:47:24;;;;;;;2.00;1.90;;;;;;;16.76;100.00;99476.44;4975727;28;20835;-50
2022/08/16 04:49:58;;;;;;;4.37;3.97;;;;;;;16.87;100.00;99479.28;4966292;28;20858;-49
2022/08/16 04:52:26;;;;;;;3.53;3.23;;;;;;;16.90;100.00;99485.38;4975361;28;20905;-49
2022/08/16 04:55:07;;;;;;;4.13;3.83;;;;;;;17.02;100.00;99487.25;4968448;28;20451;-53
2022/08/16 04:57:35;;;;;;;3.43;2.67;;;;;;;17.12;100.00;99494.56;4970019;28;20838;-50
2022/08/16 05:00:05;;;;;;;3.40;3.20;;;;;;;17.17;100.00;99496.94;4979391;28;20476;-49
2022/08/16 05:02:54;;;;;;;5.97;5.00;;;;;;;17.18;100.00;99495.97;4969110;28;20448;-48
2022/08/16 05:05:24;;;;;;;4.30;3.90;;;;;;;17.31;100.00;99502.22;4966918;28;20446;-49
2022/08/16 05:07:58;;;;;;;3.70;3.40;;;;;;;17.72;100.00;99503.88;4986507;28;20481;-50
2022/08/16 05:10:27;;;;;;;4.43;3.20;;;;;;;18.31;100.00;99502.25;4963343;28;20459;-49
2022/08/16 05:12:59;;;;;;;4.57;3.23;;;;;;;18.66;100.00;99498.84;4974552;28;20490;-48
2022/08/16 05:15:28;;;;;;;4.53;3.10;;;;;;;19.04;98.78;99495.06;4975159;28;20450;-49
2022/08/16 05:17:58;;;;;;;4.23;3.80;;;;;;;19.26;98.08;99495.16;4963828;28;20486;-49
2022/08/16 05:20:31;;;;;;;8.50;3.47;;;;;;;19.65;96.57;99493.94;4974726;28;20450;-49
2022/08/16 05:23:18;;;;;;;4.10;3.80;;;;;;;19.86;94.93;99503.97;4963783;28;20447;-48
2022/08/16 05:25:46;;;;;;;9.93;3.00;;;;;;;20.18;93.84;99499.56;4973587;28;20606;-49
2022/08/16 05:28:14;;;;;;;3.60;3.40;;;;;;;20.49;92.78;99499.81;4974797;28;20474;-48
2022/08/16 05:30:41;;;;;;;4.37;4.07;;;;;;;20.77;91.79;99501.06;4961381;28;20454;-48
2022/08/16 05:33:09;;;;;;;10.33;4.03;;;;;;;20.64;92.25;99499.38;4974665;28;20866;-49
2022/08/16 05:35:44;;;;;;;4.73;4.30;;;;;;;20.84;91.61;99510.41;4962129;28;20458;-48
2022/08/16 05:38:26;;;;;;;4.40;4.20;;;;;;;20.95;91.08;99515.72;4961545;28;20502;-49
2022/08/16 05:41:00;;;;;;;4.87;4.57;;;;;;;21.31;89.86;99521.75;4971584;28;20443;-47
2022/08/16 05:43:28;;;;;;;3.63;3.43;;;;;;;21.25;90.64;99521.31;4961542;28;20576;-49
2022/08/16 05:45:59;;;;;;;3.03;2.83;;;;;;;21.48;90.00;99516.63;4971634;28;20506;-48
2022/08/16 05:48:25;;;;;;;3.17;3.00;;;;;;;21.75;89.52;99526.03;4974400;28;20470;-49
2022/08/16 05:50:52;;;;;;;4.73;4.07;;;;;;;21.91;88.36;99531.81;4959823;28;20459;-48
2022/08/16 05:53:19;;;;;;;3.50;3.30;;;;;;;22.10;87.39;99531.09;4972719;28;21073;-48
2022/08/16 05:55:49;;;;;;;3.57;3.33;;;;;;;22.35;86.52;99538.75;4967907;28;20454;-48
2022/08/16 05:58:17;;;;;;;4.60;4.30;;;;;;;22.13;86.74;99533.53;4968679;28;20482;-47
2022/08/16 06:00:58;;;;;;;2.90;2.70;;;;;;;22.22;87.18;99532.72;4982474;28;20503;-48
2022/08/16 06:03:25;;;;;;;5.80;4.10;;;;;;;22.15;86.80;99524.28;4963035;28;20941;-49
2022/08/16 06:05:55;;;;;;;5.17;4.17;;;;;;;22.47;86.32;99534.94;4967024;28;20450;-48
2022/08/16 06:08:26;;;;;;;10.80;3.93;;;;;;;22.28;87.25;99539.44;4964331;28;20502;-48
2022/08/16 06:10:58;;;;;;;4.10;3.80;;;;;;;22.29;87.31;99551.97;4964097;28;20440;-47
2022/08/16 06:13:36;;;;;;;3.30;3.10;;;;;;;22.52;86.45;99549.94;4966208;28;20493;-47
2022/08/16 06:16:08;;;;;;;4.80;4.53;;;;;;;22.10;87.62;99544.63;4968053;28;20960;-47
2022/08/16 06:18:44;;;;;;;3.77;2.93;;;;;;;22.07;88.72;99553.03;4967040;28;20889;-47
2022/08/16 06:21:11;;;;;;;4.00;3.80;;;;;;;21.96;88.69;99545.81;4963080;28;20469;-47
2022/08/16 06:23:48;;;;;;;5.70;5.07;;;;;;;21.92;88.91;99549.75;4963156;28;20530;-47
2022/08/16 06:26:19;;;;;;;5.00;4.43;;;;;;;21.97;89.65;99547.53;4967815;28;20478;-53
2022/08/16 06:28:46;;;;;;;4.27;3.30;;;;;;;21.97;89.20;99543.97;4963309;28;20470;-47
2022/08/16 06:31:14;;;;;;;11.90;4.27;;;;;;;21.72;89.85;99547.94;4973688;28;20456;-47
2022/08/16 06:33:42;;;;;;;7.00;3.57;;;;;;;22.29;88.13;99546.56;4960319;28;21003;-48
2022/08/16 06:36:12;;;;;;;4.10;3.80;;;;;;;22.14;90.00;99551.50;4972562;28;20468;-48
2022/08/16 06:38:40;;;;;;;4.00;3.70;;;;;;;21.78;90.64;99547.41;4973332;28;21054;-48
2022/08/16 06:41:22;;;;;;;6.03;3.93;;;;;;;21.61;91.83;99545.31;4960108;28;20451;-47
2022/08/16 06:43:52;;;;;;;3.53;3.27;;;;;;;21.86;90.76;99545.75;4961334;28;20449;-49
2022/08/16 06:46:32;;;;;;;8.83;6.37;;;;;;;22.14;90.16;99546.06;4960822;28;20987;-47
2022/08/16 06:49:04;;;;;;;3.70;3.50;;;;;;;22.17;88.82;99546.66;4973634;28;20470;-47
2022/08/16 06:51:32;;;;;;;3.50;3.10;;;;;;;22.17;89.49;99546.66;4970030;28;20953;-48
2022/08/16 06:54:14;;;;;;;9.43;4.40;;;;;;;21.77;91.21;99540.28;4966099;28;20824;-47
2022/08/16 06:56:41;;;;;;;3.70;3.50;;;;;;;21.91;92.03;99534.53;4973401;28;20465;-48
2022/08/16 06:59:07;;;;;;;4.63;4.27;;;;;;;22.10;91.15;99536.53;4960680;28;20535;-49
2022/08/16 07:01:35;;;;;;;3.13;2.93;;;;;;;22.08;90.92;99541.22;4957981;28;20461;-48
2022/08/16 07:04:18;;;;;;;8.53;3.90;;;;;;;22.07;91.42;99545.78;4962403;28;20444;-48
2022/08/16 07:06:57;;;;;;;5.77;3.77;;;;;;;22.31;90.81;99549.97;4967434;28;20462;-48
2022/08/16 07:09:25;;;;;;;4.87;4.67;;;;;;;22.60;90.16;99550.94;4961253;28;20534;-48
2022/08/16 07:11:56;;;;;;;3.60;3.30;;;;;;;22.33;90.76;99556.13;4964031;28;20925;-48
2022/08/16 07:14:32;;;;;;;4.30;4.00;;;;;;;22.67;90.74;99554.81;4969352;28;20517;-49
2022/08/16 07:17:01;;;;;;;3.93;2.47;;;;;;;22.31;90.78;99549.97;4963944;28;20463;-47
2022/08/16 07:19:31;;;;;;;5.07;4.43;;;;;;;22.76;89.22;99555.84;4963609;28;20454;-48
2022/08/16 07:22:18;;;;;;;3.67;3.30;;;;;;;22.73;90.14;99547.97;4969952;28;20457;-48
2022/08/16 07:25:10;;;;;;;3.90;3.70;;;;;;;22.91;88.71;99534.66;4963199;28;20443;-47
2022/08/16 07:27:38;;;;;;;3.37;3.17;;;;;;;22.94;87.90;99537.91;4963161;28;20985;-48
2022/08/16 07:30:10;;;;;;;4.43;4.00;;;;;;;22.61;89.85;99528.25;4968202;28;20451;-49
2022/08/16 07:32:57;;;;;;;7.43;3.07;;;;;;;23.09;88.93;99522.09;4965865;28;20455;-48
2022/08/16 07:35:23;;;;;;;3.30;3.10;;;;;;;22.94;88.73;99528.94;4967315;28;20442;-48
2022/08/16 07:37:50;;;;;;;15.93;4.10;;;;;;;22.88;89.23;99530.34;4971759;28;20466;-48
2022/08/16 07:40:17;;;;;;;6.13;5.70;;;;;;;22.87;87.90;99522.34;4960566;28;20450;-48
2022/08/16 07:42:51;;;;;;;2.77;2.57;;;;;;;23.25;87.73;99533.22;4972964;28;20457;-49
2022/08/16 07:45:18;;;;;;;3.63;3.40;;;;;;;23.34;86.66;99531.50;4969653;28;20455;-48
2022/08/16 07:47:44;;;;;;;4.20;4.00;;;;;;;23.61;85.60;99538.94;4968775;28;20983;-48
2022/08/16 07:50:16;;;;;;;8.50;3.57;;;;;;;23.96;84.86;99542.84;4976477;28;20453;-48
2022/08/16 07:53:03;;;;;;;4.63;3.37;;;;;;;23.76;83.98;99540.19;4963615;28;20566;-48
2022/08/16 07:55:31;;;;;;;3.00;2.83;;;;;;;24.23;83.12;99541.03;4976571;28;20489;-49
2022/08/16 07:58:12;;;;;;;5.03;4.60;;;;;;;24.14;83.32;99547.38;4972004;28;20471;-49
2022/08/16 08:01:00;;;;;;;3.63;3.43;;;;;;;24.17;82.74;99551.66;4985045;28;20965;-48
2022/08/16 08:03:27;;;;;;;3.50;3.10;;;;;;;24.10;84.65;99550.50;4966499;28;20459;-50
2022/08/16 08:06:05;;;;;;;3.40;3.10;;;;;;;23.74;84.89;99550.34;4974897;28;20454;-48
2022/08/16 08:08:36;;;;;;;17.03;4.40;;;;;;;23.92;84.84;99554.00;4985028;28;20557;-48
2022/08/16 08:11:17;;;;;;;2.83;2.70;;;;;;;24.46;82.28;99551.56;4961884;28;20461;-48
2022/08/16 08:13:43;;;;;;;3.97;3.77;;;;;;;24.04;83.45;99549.25;4973174;28;20517;-47
2022/08/16 08:16:11;;;;;;;4.43;3.17;;;;;;;24.90;80.88;99555.28;4963112;28;20956;-49
2022/08/16 08:18:45;;;;;;;3.73;3.43;;;;;;;24.84;79.95;99552.34;4968083;28;20477;-49
2022/08/16 08:21:26;;;;;;;2.93;2.67;;;;;;;24.76;79.15;99556.66;4975984;28;20454;-48
2022/08/16 08:24:13;;;;;;;3.80;3.60;;;;;;;25.08;79.55;99553.50;4957651;28;20819;-48
2022/08/16 08:26:41;;;;;;;8.60;3.77;;;;;;;24.79;79.64;99545.47;4969122;28;20455;-48
2022/08/16 08:29:08;;;;;;;3.27;3.10;;;;;;;24.80;79.65;99549.06;4972808;28;20509;-49
2022/08/16 08:31:39;;;;;;;3.57;3.37;;;;;;;24.83;80.52;99548.78;4966634;28;20479;-49
2022/08/16 08:34:06;;;;;;;3.10;2.83;;;;;;;25.25;78.53;99553.66;4963294;28;20489;-48
2022/08/16 08:36:35;;;;;;;22.07;4.00;;;;;;;25.59;77.50;99572.81;4964697;28;20447;-49
2022/08/16 08:39:04;;;;;;;3.77;3.57;;;;;;;25.29;76.92;99563.22;4963351;28;20478;-49
2022/08/16 08:41:40;;;;;;;5.93;3.10;;;;;;;25.03;78.29;99560.41;4972823;28;20530;-49
2022/08/16 08:44:09;;;;;;;5.07;2.73;;;;;;;24.89;78.38;99563.59;4961727;28;20454;-48
2022/08/16 08:46:57;;;;;;;2.10;2.00;;;;;;;25.63;76.69;99572.38;4970195;28;21030;-50
2022/08/16 08:49:27;;;;;;;2.10;2.00;;;;;;;25.64;75.44;99573.22;4965450;28;20482;-49
2022/08/16 08:52:14;;;;;;;3.50;3.27;;;;;;;25.49;75.45;99574.75;4968647;28;20435;-50
2022/08/16 08:55:04;;;;;;;2.77;2.57;;;;;;;25.58;75.86;99571.97;4966204;28;20457;-49
2022/08/16 08:57:38;;;;;;;3.13;3.00;;;;;;;25.89;73.80;99566.09;4969901;28;20466;-49
2022/08/16 09:00:10;;;;;;;2.60;2.40;;;;;;;25.59;74.07;99568.22;4982774;28;20500;-49
2022/08/16 09:02:43;;;;;;;2.70;2.60;;;;;;;26.41;73.35;99568.84;4977622;28;20447;-51
2022/08/16 09:05:19;;;;;;;3.17;2.93;;;;;;;26.78;71.85;99574.78;4965834;28;20808;-50
2022/08/16 09:07:48;;;;;;;2.03;1.93;;;;;;;26.69;71.85;99572.19;4985698;28;20477;-49
2022/08/16 09:10:26;;;;;;;3.30;2.97;;;;;;;26.73;71.47;99569.00;4961499;28;20488;-51
2022/08/16 09:12:55;;;;;;;2.83;2.63;;;;;;;26.54;71.05;99569.25;4972545;28;20454;-51
2022/08/16 09:15:22;;;;;;;3.40;3.20;;;;;;;26.59;71.88;99569.63;4974348;28;20468;-50
2022/08/16 09:17:51;;;;;;;6.60;3.30;;;;;;;26.38;72.03;99569.16;4961441;28;20887;-50
2022/08/16 09:20:22;;;;;;;3.03;2.30;;;;;;;26.45;71.84;99578.38;4973500;28;20446;-50
2022/08/16 09:22:51;;;;;;;5.70;2.23;;;;;;;26.61;70.52;99572.19;4963193;28;20451;-50
2022/08/16 09:25:20;;;;;;;1.67;1.57;;;;;;;26.33;70.39;99568.78;4973469;28;20450;-50
2022/08/16 09:27:59;;;;;;;2.13;1.93;;;;;;;26.83;70.17;99579.75;4961590;28;20478;-50
2022/08/16 09:30:35;;;;;;;2.40;2.30;;;;;;;26.85;69.84;99583.16;4972738;28;20533;-50
2022/08/16 09:33:13;;;;;;;4.53;2.20;;;;;;;27.22;67.93;99566.41;4975066;28;20530;-51
2022/08/16 09:35:40;;;;;;;1.60;1.50;;;;;;;27.04;68.23;99576.63;4964350;28;20450;-50
2022/08/16 09:38:10;;;;;;;2.30;2.20;;;;;;;27.31;66.68;99568.13;4961353;28;20852;-50
2022/08/16 09:40:38;;;;;;;2.67;2.50;;;;;;;27.66;65.75;99568.84;4970590;28;20520;-49
2022/08/16 09:43:16;;;;;;;2.23;2.13;;;;;;;28.03;64.52;99571.03;4969696;28;20450;-50
2022/08/16 09:46:06;;;;;;;3.90;2.40;;;;;;;27.78;65.49;99566.63;4974579;28;20433;-50
2022/08/16 09:48:53;;;;;;;2.13;1.93;;;;;;;28.07;63.34;99569.66;4962377;28;20452;-50
2022/08/16 09:51:25;;;;;;;5.73;2.27;;;;;;;27.86;63.76;99562.03;4961433;28;20502;-50
2022/08/16 09:53:56;;;;;;;3.07;2.43;;;;;;;27.98;62.60;99570.72;4974543;28;20497;-50
2022/08/16 09:56:30;;;;;;;2.07;1.97;;;;;;;28.05;63.72;99566.25;4972468;28;20458;-50
2022/08/16 09:58:59;;;;;;;4.70;1.70;;;;;;;27.91;62.30;99567.81;4964745;28;20476;-51
2022/08/16 10:01:35;;;;;;;3.47;1.90;;;;;;;28.35;62.33;99561.06;4987292;28;20420;-50
2022/08/16 10:04:02;;;;;;;1.90;1.80;;;;;;;27.61;63.09;99563.88;4961723;28;20458;-50
2022/08/16 10:06:31;;;;;;;2.50;2.40;;;;;;;27.95;63.13;99555.50;4976312;28;20467;-49
2022/08/16 10:08:59;;;;;;;2.23;2.13;;;;;;;28.79;61.07;99567.75;4979535;28;20474;-50
2022/08/16 10:14:19;;;;;;;2.03;1.93;;;;;;;28.45;60.18;99564.47;4973903;28;20498;-50
2022/08/16 10:17:03;;;;;;;2.50;2.30;;;;;;;28.31;60.41;99558.69;4962008;28;20458;-50
2022/08/16 10:19:31;;;;;;;2.70;1.63;;;;;;;28.25;62.07;99567.59;4961852;28;20454;-50
2022/08/16 10:21:58;;;;;;;2.20;2.00;;;;;;;29.11;59.64;99558.53;4961124;28;20501;-50
2022/08/16 10:24:31;;;;;;;1.30;1.20;;;;;;;29.21;58.15;99555.56;4973887;28;20421;-50
2022/08/16 10:27:00;;;;;;;2.30;2.07;;;;;;;28.86;58.33;99554.19;4972363;28;20960;-50
2022/08/16 10:29:47;;;;;;;1.67;1.57;;;;;;;28.53;60.07;99548.03;4965559;28;20956;-50
2022/08/16 10:32:32;;;;;;;2.23;2.07;;;;;;;28.36;60.10;99549.97;4973797;28;20974;-50
2022/08/16 10:34:59;;;;;;;2.83;2.20;;;;;;;28.97;57.71;99551.09;4973890;28;20502;-50
2022/08/16 10:37:27;;;;;;;2.43;2.27;;;;;;;29.42;57.20;99549.41;4966501;28;20843;-50
2022/08/16 10:40:09;;;;;;;1.70;1.60;;;;;;;28.74;57.04;99555.63;4969288;28;20867;-50
2022/08/16 10:42:55;;;;;;;1.43;1.33;;;;;;;28.67;57.53;99555.50;4973755;28;20456;-50
2022/08/16 10:45:22;;;;;;;2.80;1.97;;;;;;;28.54;58.05;99547.00;4960490;28;20421;-50
2022/08/16 10:47:48;;;;;;;1.23;1.13;;;;;;;29.03;57.00;99552.25;4973839;28;20453;-50
2022/08/16 10:50:28;;;;;;;1.50;1.40;;;;;;;28.89;56.66;99554.72;4973919;28;20429;-49
2022/08/16 10:52:57;;;;;;;1.57;1.47;;;;;;;28.77;56.16;99549.78;4960635;28;20455;-49
2022/08/16 10:55:25;;;;;;;1.53;1.10;;;;;;;28.77;55.44;99549.78;4973635;28;20494;-50
2022/08/16 10:58:14;;;;;;;2.30;2.20;;;;;;;28.63;56.31;99556.88;4969988;28;20486;-50
2022/08/16 11:00:43;;;;;;;2.30;2.20;;;;;;;28.82;56.00;99556.44;4978954;28;20430;-50
2022/08/16 11:03:13;;;;;;;1.30;1.20;;;;;;;29.07;54.50;99568.16;4966475;28;20452;-49
2022/08/16 11:06:00;;;;;;;1.20;1.10;;;;;;;29.07;55.46;99562.66;4970375;28;20447;-50
2022/08/16 11:08:33;;;;;;;1.20;1.10;;;;;;;29.38;55.55;99559.88;4982819;28;20504;-50
2022/08/16 11:11:05;;;;;;;1.63;1.53;;;;;;;29.34;53.56;99544.84;4960741;28;20446;-49
2022/08/16 11:13:37;;;;;;;1.80;1.70;;;;;;;29.06;53.41;99550.03;4973576;28;20545;-50
2022/08/16 11:16:23;;;;;;;1.20;1.00;;;;;;;29.59;52.76;99548.25;4973355;28;20811;-51
2022/08/16 11:18:53;;;;;;;3.07;1.37;;;;;;;29.79;52.07;99557.69;4960351;28;20461;-49
2022/08/16 11:21:38;;;;;;;1.53;1.43;;;;;;;30.17;50.57;99557.69;4977337;28;20454;-51
2022/08/16 11:24:24;;;;;;;4.17;1.50;;;;;;;29.88;51.06;99560.31;4977473;28;20450;-49
2022/08/16 11:27:18;;;;;;;1.57;1.47;;;;;;;29.97;50.30;99553.75;4964073;28;20428;-49
2022/08/16 11:29:51;;;;;;;1.20;0.90;;;;;;;29.99;50.76;99554.41;4977254;28;20428;-50
2022/08/16 11:32:19;;;;;;;0.90;0.90;;;;;;;30.66;49.08;99565.34;4971937;28;20426;-50
2022/08/16 11:34:55;;;;;;;1.30;1.20;;;;;;;29.97;48.20;99562.81;4970931;28;20471;-50
2022/08/16 11:37:43;;;;;;;1.53;1.40;;;;;;;30.05;49.63;99556.44;4967977;28;20478;-50
2022/08/16 11:40:36;;;;;;;2.17;1.80;;;;;;;29.93;49.03;99557.91;4976276;28;20454;-50
2022/08/16 11:43:05;;;;;;;2.13;1.90;;;;;;;29.96;48.90;99552.03;4976269;28;20524;-50
2022/08/16 11:45:33;;;;;;;1.67;1.43;;;;;;;30.42;48.76;99554.66;4965186;28;20425;-50
2022/08/16 11:48:04;;;;;;;1.30;1.20;;;;;;;30.85;46.54;99563.94;4976570;28;20445;-51
2022/08/16 11:50:32;;;;;;;1.30;1.20;;;;;;;31.01;46.64;99557.34;4970694;28;20455;-52
2022/08/16 11:53:00;;;;;;;1.57;1.47;;;;;;;30.57;46.88;99556.38;4975084;28;20424;-51
2022/08/16 11:55:29;;;;;;;1.40;1.30;;;;;;;30.55;46.72;99549.34;4976768;28;21097;-50
2022/08/16 11:57:56;;;;;;;16.53;1.30;;;;;;;29.77;48.35;99548.81;4962330;28;20499;-52
2022/08/16 12:00:23;;;;;;;2.30;1.60;;;;;;;29.32;49.22;99546.06;4986343;28;20937;-50